Time;durP1;ratioP1;P1;durP2;ratioP2;P2;SDS_P1;SDS_P2;PMS_P1;PMS_P2;Temp;Humidity;BMP_temperature;BMP_pressure;BME280_temperature;BME280_humidity;BME280_pressure;Samples;Min_cycle;Max_cycle;Signal;HPM_P1;HPM_P2
2021/12/10 00:01:30;;;;;;;4.27;1.67;;;;;;;3.33;74.28;94469.19;4981866;28;20231;-84
2021/12/10 00:04:00;;;;;;;2.00;1.80;;;;;;;3.30;74.59;94461.88;4982712;28;20204;-83
2021/12/10 00:06:31;;;;;;;3.53;1.80;;;;;;;3.31;74.94;94462.66;4983358;28;20646;-83
2021/12/10 00:09:02;;;;;;;3.63;1.80;;;;;;;3.28;74.84;94453.59;4982803;28;20224;-83
2021/12/10 00:11:32;;;;;;;6.57;2.20;;;;;;;3.30;74.81;94453.44;4982370;28;20239;-83
2021/12/10 00:13:59;;;;;;;3.20;1.90;;;;;;;3.29;74.38;94444.22;4982897;28;20204;-83
2021/12/10 00:16:26;;;;;;;2.60;1.60;;;;;;;3.26;74.63;94442.81;4982642;28;20234;-83
2021/12/10 00:18:57;;;;;;;4.13;1.80;;;;;;;3.20;74.68;94440.13;4963287;28;20232;-83
2021/12/10 00:21:29;;;;;;;3.03;1.63;;;;;;;3.32;74.77;94436.28;4962170;28;20264;-84
2021/12/10 00:23:56;;;;;;;4.93;2.20;;;;;;;3.40;74.75;94431.19;4982875;28;20578;-83
2021/12/10 00:26:23;;;;;;;3.87;1.70;;;;;;;3.42;74.49;94429.28;4982688;28;20232;-83
2021/12/10 00:28:52;;;;;;;5.70;1.80;;;;;;;3.39;73.42;94420.22;4983074;28;20193;-83
2021/12/10 00:31:31;;;;;;;3.67;2.00;;;;;;;3.39;73.61;94412.59;4982409;28;20267;-84
2021/12/10 00:34:02;;;;;;;3.87;1.70;;;;;;;3.39;73.47;94411.81;4983234;28;20211;-83
2021/12/10 00:36:30;;;;;;;3.47;1.80;;;;;;;3.32;73.01;94400.69;4982426;28;20235;-84
2021/12/10 00:38:59;;;;;;;3.77;1.77;;;;;;;3.29;72.73;94406.88;4982729;28;20220;-84
2021/12/10 00:41:26;;;;;;;4.23;1.50;;;;;;;3.34;73.11;94391.13;4981381;28;20242;-83
2021/12/10 00:43:52;;;;;;;2.80;1.40;;;;;;;3.33;72.77;94390.34;4982420;28;20200;-83
2021/12/10 00:46:19;;;;;;;3.27;1.53;;;;;;;3.37;72.49;94385.72;4981957;28;20232;-83
2021/12/10 00:48:45;;;;;;;3.27;1.50;;;;;;;3.35;72.13;94378.25;4981802;28;20200;-83
2021/12/10 00:51:15;;;;;;;4.07;1.87;;;;;;;3.39;71.67;94369.34;4981477;28;20282;-83
2021/12/10 00:53:44;;;;;;;4.80;1.53;;;;;;;3.38;71.72;94367.75;4981901;28;20743;-83
2021/12/10 00:56:11;;;;;;;2.50;1.60;;;;;;;3.41;71.41;94356.47;4980980;28;20224;-83
2021/12/10 00:58:38;;;;;;;2.10;1.47;;;;;;;3.38;71.38;94365.22;4980410;28;20224;-83
2021/12/10 01:01:09;;;;;;;6.53;1.63;;;;;;;3.41;71.36;94353.94;4981507;28;20263;-83
2021/12/10 01:03:39;;;;;;;2.57;1.20;;;;;;;3.41;71.38;94352.19;4981494;28;20208;-83
2021/12/10 01:06:09;;;;;;;4.07;1.70;;;;;;;3.37;71.32;94345.81;4966565;28;20721;-84
2021/12/10 01:08:38;;;;;;;2.43;1.30;;;;;;;3.39;71.70;94349.00;4981688;28;20192;-83
2021/12/10 01:11:10;;;;;;;3.37;1.27;;;;;;;3.27;71.03;94345.19;4961363;28;20228;-83
2021/12/10 01:13:39;;;;;;;3.90;1.60;;;;;;;3.24;71.26;94337.91;4962590;28;20259;-83
2021/12/10 01:23:40;;;;;;;2.53;1.20;;;;;;;3.31;71.85;94335.50;4980826;28;20227;-83
2021/12/10 01:24:53;;;;;;;1.87;1.27;;;;;;;3.37;71.16;94319.59;4980996;28;20223;-83
2021/12/10 01:27:30;;;;;;;2.00;1.37;;;;;;;3.39;70.58;94304.97;4981088;28;20214;-83
2021/12/10 01:29:58;;;;;;;2.07;1.37;;;;;;;3.35;70.67;94304.50;4980786;28;20589;-83
2021/12/10 01:32:28;;;;;;;3.13;1.57;;;;;;;3.32;70.65;94297.19;4979886;28;20259;-83
2021/12/10 01:34:55;;;;;;;2.10;1.50;;;;;;;3.29;70.90;94289.88;4980619;28;20228;-82
2021/12/10 01:37:22;;;;;;;2.60;1.77;;;;;;;3.27;70.69;94296.88;4979879;28;20216;-83
2021/12/10 01:39:49;;;;;;;2.17;1.40;;;;;;;3.30;71.01;94291.47;4980416;28;20224;-83
2021/12/10 01:42:30;;;;;;;2.63;1.63;;;;;;;3.35;71.02;94280.81;4979458;28;20235;-83
2021/12/10 01:45:01;;;;;;;5.20;1.93;;;;;;;3.36;70.27;94279.84;4979470;28;20227;-83
2021/12/10 01:47:30;;;;;;;3.17;1.77;;;;;;;3.34;70.41;94274.94;4979502;28;20355;-84
2021/12/10 01:49:57;;;;;;;2.37;1.60;;;;;;;3.29;70.74;94264.44;4980089;28;20664;-83
2021/12/10 01:52:25;;;;;;;4.00;1.40;;;;;;;3.22;71.23;94258.44;4979105;28;20647;-83
2021/12/10 01:54:55;;;;;;;2.13;1.23;;;;;;;3.22;71.65;94250.03;4979544;28;20216;-84
2021/12/10 01:57:26;;;;;;;3.40;1.40;;;;;;;3.18;71.98;94244.47;4979790;28;20200;-84
2021/12/10 01:59:53;;;;;;;4.57;1.60;;;;;;;3.15;71.89;94236.38;4979013;28;20220;-83
2021/12/10 02:02:24;;;;;;;2.00;1.30;;;;;;;3.13;72.32;94237.31;4978188;28;20363;-83
2021/12/10 02:04:52;;;;;;;2.20;1.53;;;;;;;3.12;72.29;94233.19;4978169;28;20240;-83
2021/12/10 02:07:21;;;;;;;2.93;1.40;;;;;;;3.08;72.50;94224.31;4978019;28;20219;-83
2021/12/10 02:09:49;;;;;;;1.83;1.37;;;;;;;3.08;72.64;94219.22;4978642;28;20203;-84
2021/12/10 02:12:18;;;;;;;2.90;1.50;;;;;;;3.03;72.72;94218.16;4978595;28;20262;-83
2021/12/10 02:14:45;;;;;;;3.60;1.90;;;;;;;2.95;72.19;94211.34;4977823;28;20208;-84
2021/12/10 02:17:13;;;;;;;2.27;1.60;;;;;;;2.97;72.49;94206.88;4977570;28;20208;-83
2021/12/10 02:19:41;;;;;;;3.60;1.67;;;;;;;2.97;72.56;94201.78;4978485;28;20572;-83
2021/12/10 02:22:09;;;;;;;3.20;2.00;;;;;;;2.97;72.54;94188.28;4976725;28;20236;-83
2021/12/10 02:24:36;;;;;;;2.53;1.60;;;;;;;2.88;72.44;94182.47;4977355;28;20282;-83
2021/12/10 02:27:06;;;;;;;2.57;1.70;;;;;;;2.84;72.87;94176.13;4977296;28;20196;-83
2021/12/10 02:29:35;;;;;;;2.70;1.50;;;;;;;2.77;72.55;94170.88;4977554;28;20200;-83
2021/12/10 02:32:01;;;;;;;2.63;1.70;;;;;;;2.80;72.84;94161.34;4977718;28;20724;-83
2021/12/10 02:34:28;;;;;;;3.77;1.93;;;;;;;2.76;73.12;94155.78;4977550;28;20211;-83
2021/12/10 02:36:55;;;;;;;4.00;2.27;;;;;;;2.79;72.83;94155.47;4977673;28;20209;-83
2021/12/10 02:39:26;;;;;;;2.40;2.17;;;;;;;2.73;72.91;94146.75;4979198;28;20219;-83
2021/12/10 02:41:53;;;;;;;3.80;2.30;;;;;;;2.65;73.38;94139.16;4981489;28;20227;-83
2021/12/10 02:44:22;;;;;;;3.00;2.07;;;;;;;2.62;73.66;94128.53;4980300;28;20220;-83
2021/12/10 02:46:49;;;;;;;5.50;2.27;;;;;;;2.58;73.77;94129.81;4981382;28;20220;-83
2021/12/10 02:49:17;;;;;;;4.07;2.03;;;;;;;2.49;74.15;94123.97;4981765;28;20212;-83
2021/12/10 02:51:44;;;;;;;3.93;2.30;;;;;;;2.49;74.77;94123.97;4980716;28;20238;-83
2021/12/10 02:54:20;;;;;;;2.10;1.70;;;;;;;2.52;74.20;94116.00;4984012;28;20219;-82
2021/12/10 02:56:48;;;;;;;1.70;1.43;;;;;;;2.57;74.41;94115.53;4991225;28;20220;-83
2021/12/10 02:59:15;;;;;;;2.43;1.57;;;;;;;2.63;74.08;94104.72;4985045;28;20519;-84
2021/12/10 03:01:44;;;;;;;3.10;1.70;;;;;;;2.61;73.74;94104.88;4984307;28;20283;-83
2021/12/10 03:04:12;;;;;;;3.17;1.80;;;;;;;2.61;73.50;94099.00;4984737;28;20200;-83
2021/12/10 03:06:44;;;;;;;2.17;1.70;;;;;;;2.54;73.27;94090.44;4984411;28;20226;-83
2021/12/10 03:09:11;;;;;;;2.47;1.50;;;;;;;2.52;73.49;94094.91;4984233;28;20200;-83
2021/12/10 03:11:39;;;;;;;1.80;1.57;;;;;;;2.54;73.36;94087.91;4984631;28;20236;-84
2021/12/10 03:14:10;;;;;;;2.30;1.53;;;;;;;2.54;73.22;94082.81;4984234;28;20200;-83
2021/12/10 03:16:37;;;;;;;1.53;1.40;;;;;;;2.50;73.10;94074.78;4983438;28;20224;-83
2021/12/10 03:19:05;;;;;;;3.40;1.70;;;;;;;2.47;73.73;94075.09;4983120;28;20283;-83
2021/12/10 03:21:32;;;;;;;2.60;1.57;;;;;;;2.42;73.76;94080.66;4982385;28;20262;-83
2021/12/10 03:23:58;;;;;;;3.53;1.70;;;;;;;2.35;73.81;94066.22;4982714;28;20205;-83
2021/12/10 03:26:25;;;;;;;2.93;1.50;;;;;;;2.30;73.94;94059.13;4982743;28;20224;-83
2021/12/10 03:28:53;;;;;;;2.17;1.70;;;;;;;2.30;74.16;94061.66;4982856;28;20192;-83
2021/12/10 03:31:23;;;;;;;3.60;1.80;;;;;;;2.34;73.96;94052.75;4977166;28;20235;-83
2021/12/10 03:33:51;;;;;;;2.97;1.70;;;;;;;2.35;74.04;94056.88;4962891;29;20237;-83
2021/12/10 03:36:17;;;;;;;1.63;1.30;;;;;;;2.12;74.61;94040.75;4961399;28;20240;-83
2021/12/10 03:38:46;;;;;;;1.70;1.43;;;;;;;1.98;75.54;94047.28;4976068;28;20220;-83
2021/12/10 03:41:13;;;;;;;1.73;1.37;;;;;;;1.86;76.20;94042.72;4980038;28;20223;-83
2021/12/10 03:43:41;;;;;;;1.47;1.30;;;;;;;1.84;76.24;94045.41;4980178;28;20707;-83
2021/12/10 03:46:09;;;;;;;2.23;1.40;;;;;;;1.71;76.65;94034.97;4980117;28;20322;-84
2021/12/10 03:48:40;;;;;;;3.13;1.93;;;;;;;1.65;77.28;94038.94;4980234;28;20200;-84
2021/12/10 03:51:09;;;;;;;2.20;1.50;;;;;;;1.55;77.23;94024.84;4979243;28;20228;-82
2021/12/10 03:53:36;;;;;;;2.77;1.77;;;;;;;1.56;77.85;94027.22;4979613;28;20290;-83
2021/12/10 03:56:05;;;;;;;1.93;1.50;;;;;;;1.66;77.59;94015.16;4979417;28;20220;-83
2021/12/10 03:58:33;;;;;;;1.60;1.30;;;;;;;1.67;76.94;94011.69;4979240;28;20588;-83
2021/12/10 04:01:01;;;;;;;3.60;1.70;;;;;;;1.60;77.65;94009.94;4978678;28;20228;-83
2021/12/10 04:03:29;;;;;;;1.63;1.40;;;;;;;1.69;77.07;94007.25;4980154;28;20610;-83
2021/12/10 04:05:57;;;;;;;3.20;1.40;;;;;;;1.78;76.59;94004.69;4977171;28;20224;-83
2021/12/10 04:08:24;;;;;;;3.10;1.60;;;;;;;1.67;76.08;93999.00;4979741;28;20579;-83
2021/12/10 04:10:53;;;;;;;2.70;1.30;;;;;;;1.63;76.21;93994.41;4978352;28;20278;-83
2021/12/10 04:13:20;;;;;;;2.30;1.30;;;;;;;1.54;76.76;93990.31;4979321;28;20216;-83
2021/12/10 04:15:47;;;;;;;1.30;1.20;;;;;;;1.36;77.00;93993.00;4978609;28;20220;-83
2021/12/10 04:18:14;;;;;;;1.93;1.43;;;;;;;1.34;76.73;93983.03;4978681;28;20594;-83
2021/12/10 04:20:42;;;;;;;2.00;1.27;;;;;;;1.35;76.37;93979.53;4978039;28;20235;-83
2021/12/10 04:23:12;;;;;;;1.57;1.30;;;;;;;1.26;76.21;93980.50;4977498;28;20216;-83
2021/12/10 04:25:40;;;;;;;1.30;1.20;;;;;;;1.21;76.36;93979.38;4959318;28;20221;-83
2021/12/10 04:28:10;;;;;;;2.60;1.60;;;;;;;1.22;75.96;93975.91;4966984;28;20204;-83
2021/12/10 04:30:41;;;;;;;1.43;1.00;;;;;;;1.18;75.58;93969.56;4978186;28;20200;-83
2021/12/10 04:33:08;;;;;;;1.10;1.00;;;;;;;1.15;74.95;93962.31;4977873;28;20279;-83
2021/12/10 04:35:36;;;;;;;1.90;1.23;;;;;;;1.11;74.54;93961.03;4978370;28;20232;-83
2021/12/10 04:38:04;;;;;;;1.23;1.10;;;;;;;1.08;74.07;93964.66;4979310;28;20196;-83
2021/12/10 04:40:32;;;;;;;0.90;0.90;;;;;;;1.11;74.13;93959.28;4979035;28;20228;-83
2021/12/10 04:43:00;;;;;;;1.00;0.90;;;;;;;1.04;73.68;93958.34;4981120;28;20212;-83
2021/12/10 04:45:26;;;;;;;1.30;1.20;;;;;;;1.01;73.86;93948.50;4961439;28;20635;-83
2021/12/10 04:47:54;;;;;;;1.20;1.10;;;;;;;1.07;73.85;93947.88;4985831;28;20207;-82
2021/12/10 04:50:23;;;;;;;1.10;1.00;;;;;;;1.17;73.35;93951.03;4984888;28;20197;-81
2021/12/10 04:52:50;;;;;;;2.10;1.10;;;;;;;1.27;72.71;93950.88;4986514;28;20200;-83
2021/12/10 04:55:18;;;;;;;1.93;1.10;;;;;;;1.33;72.68;93950.25;4984488;28;20220;-82
2021/12/10 04:57:46;;;;;;;1.83;1.30;;;;;;;1.33;72.88;93947.72;4983317;28;20200;-82
2021/12/10 05:00:18;;;;;;;1.20;1.10;;;;;;;1.16;72.95;93941.06;4982547;28;20220;-82
2021/12/10 05:02:45;;;;;;;1.67;1.10;;;;;;;1.06;73.26;93917.63;4982058;28;20676;-83
2021/12/10 05:05:13;;;;;;;1.10;1.00;;;;;;;0.85;73.89;93897.84;4982088;28;20231;-83
2021/12/10 05:07:40;;;;;;;2.03;1.30;;;;;;;0.69;75.10;93884.25;4990878;28;20204;-82
2021/12/10 05:10:10;;;;;;;1.07;0.97;;;;;;;0.66;75.33;93882.03;4990707;28;20206;-82
2021/12/10 05:12:36;;;;;;;1.20;1.00;;;;;;;0.65;75.47;93890.56;4983109;28;20236;-82
2021/12/10 05:15:08;;;;;;;1.10;1.00;;;;;;;0.77;75.19;93895.34;4978960;28;20227;-81
2021/12/10 05:17:35;;;;;;;1.40;1.10;;;;;;;0.89;74.55;93894.84;4979968;28;20288;-82
2021/12/10 05:20:05;;;;;;;1.50;1.20;;;;;;;0.97;73.70;93888.97;4979075;28;20220;-82
2021/12/10 05:22:31;;;;;;;1.43;1.20;;;;;;;0.94;73.43;93886.78;4978681;28;20248;-82
2021/12/10 05:24:58;;;;;;;1.43;1.13;;;;;;;0.90;73.43;93890.56;4978680;28;20719;-82
2021/12/10 05:27:24;;;;;;;1.33;1.20;;;;;;;0.81;74.09;93877.09;4979257;28;20204;-81
2021/12/10 05:29:51;;;;;;;1.30;1.20;;;;;;;0.76;74.36;93879.34;4978492;28;20200;-81
2021/12/10 05:32:19;;;;;;;1.53;1.20;;;;;;;0.75;74.34;93874.44;4979129;28;20729;-82
2021/12/10 05:34:46;;;;;;;1.27;1.17;;;;;;;0.82;73.97;93875.38;4979196;28;20200;-82
2021/12/10 05:37:13;;;;;;;1.30;1.20;;;;;;;0.83;73.66;93876.94;4978921;28;20200;-82
2021/12/10 05:39:40;;;;;;;1.37;1.27;;;;;;;0.81;74.00;93872.03;4973957;28;20228;-82
2021/12/10 05:42:07;;;;;;;1.90;1.30;;;;;;;0.72;73.51;93862.09;4978463;28;20236;-81
2021/12/10 05:44:34;;;;;;;1.40;1.10;;;;;;;0.68;74.26;93859.06;4978531;28;20208;-81
2021/12/10 05:47:01;;;;;;;4.33;1.50;;;;;;;0.76;73.98;93861.63;4970237;28;20978;-81
2021/12/10 05:49:29;;;;;;;2.60;1.40;;;;;;;0.69;73.59;93856.38;4971996;28;20204;-82
2021/12/10 05:51:56;;;;;;;1.50;1.30;;;;;;;0.67;74.07;93862.56;4975928;28;20224;-82
2021/12/10 05:54:22;;;;;;;1.30;1.20;;;;;;;0.58;74.21;93871.09;4975361;28;20211;-82
2021/12/10 05:56:50;;;;;;;1.40;1.10;;;;;;;0.64;73.61;93857.81;4975007;28;20224;-85
2021/12/10 05:59:17;;;;;;;1.20;1.10;;;;;;;0.77;73.34;93849.75;4976365;28;20227;-82
2021/12/10 06:01:44;;;;;;;1.53;1.20;;;;;;;0.69;73.54;93848.00;4974405;28;20247;-82
2021/12/10 06:04:10;;;;;;;1.23;1.13;;;;;;;0.68;73.45;93836.28;4975438;28;20567;-82
2021/12/10 06:06:38;;;;;;;1.40;1.30;;;;;;;0.72;73.55;93844.38;4975041;28;20699;-82
2021/12/10 06:09:07;;;;;;;1.33;1.20;;;;;;;0.74;73.15;93834.88;4976028;28;20196;-82
2021/12/10 06:11:35;;;;;;;7.60;4.17;;;;;;;0.83;73.51;93827.09;4975616;28;20609;-82
2021/12/10 06:14:04;;;;;;;5.13;1.40;;;;;;;0.86;72.96;93814.09;4975835;28;20208;-82
2021/12/10 06:16:31;;;;;;;2.17;1.50;;;;;;;0.86;72.73;93810.78;4975585;28;20224;-82
2021/12/10 06:18:57;;;;;;;1.90;1.30;;;;;;;0.85;72.75;93810.00;4976160;28;20586;-82
2021/12/10 06:21:24;;;;;;;1.73;1.43;;;;;;;0.91;72.74;93806.81;4976355;28;20236;-82
2021/12/10 06:24:01;;;;;;;1.30;1.10;;;;;;;0.91;72.43;93798.44;4975329;28;20227;-82
2021/12/10 06:26:28;;;;;;;1.40;1.30;;;;;;;0.94;72.33;93798.91;4970588;28;20842;-82
2021/12/10 06:28:55;;;;;;;2.60;1.17;;;;;;;0.99;72.68;93794.13;4975154;28;20211;-82
2021/12/10 06:31:24;;;;;;;1.50;1.40;;;;;;;1.00;72.56;93787.31;4975032;28;20719;-82
2021/12/10 06:33:51;;;;;;;2.80;1.60;;;;;;;1.00;72.34;93783.03;4976517;28;20619;-82
2021/12/10 06:36:20;;;;;;;2.00;1.43;;;;;;;0.77;72.29;93772.00;4968092;28;20255;-82
2021/12/10 06:38:47;;;;;;;2.63;1.33;;;;;;;0.62;73.37;93766.81;4976447;28;20196;-82
2021/12/10 06:41:16;;;;;;;2.37;1.53;;;;;;;0.51;73.64;93761.31;4974770;28;20235;-82
2021/12/10 06:43:43;;;;;;;1.60;1.50;;;;;;;0.49;74.20;93753.06;4975394;28;20258;-82
2021/12/10 06:46:10;;;;;;;2.37;1.87;;;;;;;0.42;74.41;93754.66;4974719;28;20295;-82
2021/12/10 06:48:36;;;;;;;3.03;2.27;;;;;;;0.30;75.11;93751.66;4974953;28;20701;-82
2021/12/10 06:51:09;;;;;;;2.57;2.00;;;;;;;0.31;75.91;93763.38;4974483;28;20227;-82
2021/12/10 06:53:36;;;;;;;4.07;2.20;;;;;;;0.10;76.78;93755.47;4976314;28;20204;-82
2021/12/10 06:56:05;;;;;;;2.27;2.07;;;;;;;0.22;76.50;93752.44;4975220;28;20232;-82
2021/12/10 06:58:34;;;;;;;3.60;2.33;;;;;;;0.19;76.45;93746.94;4976126;28;20208;-82
2021/12/10 07:01:06;;;;;;;3.93;2.57;;;;;;;0.12;77.16;93739.19;4973691;28;20235;-82
2021/12/10 07:03:34;;;;;;;5.03;3.10;;;;;;;0.05;77.70;93737.44;4970429;28;20204;-83
2021/12/10 07:06:02;;;;;;;2.93;2.63;;;;;;;0.02;78.02;93741.06;4974392;28;20274;-82
2021/12/10 07:08:31;;;;;;;5.47;3.60;;;;;;;-0.05;78.78;93733.34;4976041;28;20199;-82
2021/12/10 07:11:01;;;;;;;4.20;3.20;;;;;;;-0.10;78.90;93735.53;4981354;28;20918;-82
2021/12/10 07:13:28;;;;;;;4.37;3.50;;;;;;;-0.06;79.01;93725.91;4975592;28;20204;-82
2021/12/10 07:15:56;;;;;;;5.83;3.53;;;;;;;-0.04;78.41;93724.81;4973230;28;20227;-82
2021/12/10 07:18:23;;;;;;;3.97;3.57;;;;;;;0.04;78.76;93730.81;4975689;28;20243;-82
2021/12/10 07:20:53;;;;;;;5.43;3.77;;;;;;;-0.05;78.42;93719.91;4974052;28;20227;-82
2021/12/10 07:23:20;;;;;;;6.17;4.10;;;;;;;0.03;78.25;93721.63;4980893;28;20224;-82
2021/12/10 07:25:47;;;;;;;6.17;3.70;;;;;;;0.03;78.30;93719.88;4989057;28;20279;-82
2021/12/10 07:28:14;;;;;;;5.33;4.60;;;;;;;0.05;78.11;93722.25;4977145;28;20584;-82
2021/12/10 07:30:40;;;;;;;4.37;3.77;;;;;;;0.18;77.87;93722.59;4979310;28;20678;-82
2021/12/10 07:33:09;;;;;;;4.27;3.80;;;;;;;0.25;77.22;93724.31;4980489;28;20197;-82
2021/12/10 07:35:36;;;;;;;4.37;3.97;;;;;;;0.35;76.91;93724.16;4981565;28;20224;-82
2021/12/10 07:38:03;;;;;;;6.23;4.60;;;;;;;0.33;76.94;93724.31;4980942;28;20207;-82
2021/12/10 07:40:31;;;;;;;5.13;4.10;;;;;;;0.39;77.12;93717.00;4980608;28;20224;-82
2021/12/10 07:42:58;;;;;;;5.27;4.07;;;;;;;0.39;76.36;93717.78;4977530;28;20208;-82
2021/12/10 07:45:27;;;;;;;5.73;4.67;;;;;;;0.36;76.79;93707.22;4978864;28;20220;-82
2021/12/10 07:47:55;;;;;;;6.10;4.47;;;;;;;0.58;76.47;93701.47;4978427;28;20589;-82
2021/12/10 07:50:28;;;;;;;5.43;4.10;;;;;;;0.48;75.83;93690.75;4976239;28;20196;-82
2021/12/10 07:52:56;;;;;;;5.03;4.30;;;;;;;0.60;75.83;93690.22;4977400;28;20227;-82
2021/12/10 07:55:25;;;;;;;5.73;4.30;;;;;;;0.60;74.78;93689.44;4975853;28;20292;-82
2021/12/10 07:57:53;;;;;;;5.30;4.60;;;;;;;0.71;74.59;93688.31;4973665;28;20204;-82
2021/12/10 08:00:22;;;;;;;7.57;4.60;;;;;;;0.74;74.17;93686.25;4976684;28;20220;-82
2021/12/10 08:02:49;;;;;;;4.73;4.00;;;;;;;0.76;73.36;93676.75;4973684;28;20225;-82
2021/12/10 08:05:18;;;;;;;4.73;4.23;;;;;;;0.80;73.06;93677.97;4976361;28;20720;-82
2021/12/10 08:07:46;;;;;;;4.80;4.20;;;;;;;0.89;71.82;93669.41;4977243;28;20211;-82
2021/12/10 08:10:15;;;;;;;4.73;3.63;;;;;;;1.03;71.52;93668.69;4976997;28;20241;-83
2021/12/10 08:12:42;;;;;;;5.20;4.40;;;;;;;1.25;71.22;93666.38;4977160;28;20268;-82
2021/12/10 08:15:10;;;;;;;5.03;4.50;;;;;;;1.45;70.57;93662.44;4978400;28;20246;-82
2021/12/10 08:17:37;;;;;;;6.47;4.40;;;;;;;1.84;70.17;93667.41;4978509;28;20200;-83
2021/12/10 08:20:07;;;;;;;4.50;4.07;;;;;;;1.95;68.41;93656.03;4975694;28;20224;-82
2021/12/10 08:22:34;;;;;;;5.00;4.10;;;;;;;2.18;68.06;93650.94;4972338;28;20228;-82
2021/12/10 08:25:01;;;;;;;5.57;4.33;;;;;;;2.28;66.50;93652.28;4974035;28;20232;-82
2021/12/10 08:27:28;;;;;;;4.23;3.63;;;;;;;2.40;66.58;93650.88;4978400;28;20212;-82
2021/12/10 08:29:54;;;;;;;4.57;4.13;;;;;;;2.54;65.59;93648.50;4976579;28;20219;-82
2021/12/10 08:32:22;;;;;;;3.97;3.60;;;;;;;2.82;64.87;93641.06;4975369;28;20320;-82
2021/12/10 08:34:49;;;;;;;4.63;3.63;;;;;;;2.69;64.73;93636.63;4976462;28;20624;-83
2021/12/10 08:37:17;;;;;;;4.63;3.47;;;;;;;2.32;64.72;93629.84;4971220;28;20703;-83
2021/12/10 08:39:44;;;;;;;5.37;3.90;;;;;;;2.25;65.58;93627.22;4974774;28;20204;-82
2021/12/10 08:42:13;;;;;;;6.77;3.97;;;;;;;1.93;65.76;93632.59;4968182;28;20236;-82
2021/12/10 08:44:41;;;;;;;3.40;3.10;;;;;;;1.76;66.38;93638.75;4974336;28;20742;-82
2021/12/10 08:47:08;;;;;;;4.67;3.60;;;;;;;1.51;67.13;93640.72;4969136;28;20196;-82
2021/12/10 08:49:35;;;;;;;4.10;3.53;;;;;;;1.48;68.11;93638.50;4973167;28;20211;-82
2021/12/10 08:52:02;;;;;;;5.10;3.73;;;;;;;1.56;67.78;93646.84;4973205;28;20719;-82
2021/12/10 08:54:32;;;;;;;5.33;3.60;;;;;;;1.61;67.78;93631.91;4975666;28;20204;-82
2021/12/10 08:56:59;;;;;;;4.90;3.50;;;;;;;1.67;66.86;93631.25;4978025;28;20219;-83
2021/12/10 08:59:28;;;;;;;3.53;3.00;;;;;;;1.93;67.33;93625.78;4980175;28;20200;-82
2021/12/10 09:02:00;;;;;;;3.63;3.03;;;;;;;2.08;66.04;93628.34;4974706;28;20259;-83
2021/12/10 09:04:28;;;;;;;3.43;3.13;;;;;;;2.27;65.26;93632.13;4967150;28;20203;-82
2021/12/10 09:07:00;;;;;;;3.10;2.80;;;;;;;2.68;64.20;93622.34;4975052;28;20247;-83
2021/12/10 09:09:28;;;;;;;3.43;2.80;;;;;;;2.85;63.68;93612.75;4974313;28;20204;-82
2021/12/10 09:11:57;;;;;;;9.20;3.23;;;;;;;3.19;62.12;93601.97;4973327;28;20244;-82
2021/12/10 09:14:27;;;;;;;4.23;3.30;;;;;;;3.37;61.00;93589.63;4974226;28;20204;-83
2021/12/10 09:16:57;;;;;;;3.17;2.50;;;;;;;3.48;60.92;93584.84;4974101;28;20697;-83
2021/12/10 09:19:24;;;;;;;3.43;2.77;;;;;;;3.70;59.84;93577.97;4974395;28;20267;-82
2021/12/10 09:21:51;;;;;;;2.93;2.60;;;;;;;3.78;60.26;93584.72;4972967;28;20260;-83
2021/12/10 09:24:20;;;;;;;2.80;2.50;;;;;;;3.71;59.08;93578.78;4966822;28;20312;-83
2021/12/10 09:26:52;;;;;;;2.93;2.70;;;;;;;3.68;58.96;93574.84;4975860;28;20236;-82
2021/12/10 09:29:19;;;;;;;3.17;2.40;;;;;;;3.60;58.90;93576.72;4971604;28;20668;-83
2021/12/10 09:31:46;;;;;;;3.50;2.70;;;;;;;3.85;59.15;93577.13;4973406;28;20228;-82
2021/12/10 09:34:17;;;;;;;3.60;2.50;;;;;;;4.04;57.19;93573.94;4974069;28;20243;-82
2021/12/10 09:36:45;;;;;;;3.13;2.60;;;;;;;4.10;58.87;93575.72;4977787;28;20585;-82
2021/12/10 09:39:13;;;;;;;2.73;2.40;;;;;;;3.93;56.86;93576.97;4975222;28;20271;-82
2021/12/10 09:41:40;;;;;;;3.60;2.50;;;;;;;3.71;57.75;93559.19;4969710;28;20228;-82
2021/12/10 09:44:08;;;;;;;3.40;2.53;;;;;;;3.52;58.40;93561.59;4975245;28;20204;-82
2021/12/10 09:46:34;;;;;;;3.03;2.63;;;;;;;3.38;59.08;93564.03;4969005;28;20310;-82
2021/12/10 09:49:01;;;;;;;3.87;2.63;;;;;;;3.70;59.79;93564.47;4972926;28;20235;-83
2021/12/10 09:51:31;;;;;;;3.30;2.70;;;;;;;3.88;59.07;93559.72;4973198;28;20609;-82
2021/12/10 09:54:01;;;;;;;3.60;2.60;;;;;;;3.75;59.72;93550.22;4971980;28;20206;-83
2021/12/10 09:56:28;;;;;;;3.77;3.00;;;;;;;3.63;60.36;93549.19;4972737;28;20282;-82
2021/12/10 09:58:56;;;;;;;3.87;2.73;;;;;;;3.54;60.09;93550.25;4975721;28;20343;-82
2021/12/10 10:01:28;;;;;;;3.03;2.60;;;;;;;3.34;60.96;93539.91;4980446;28;20240;-82
2021/12/10 10:04:00;;;;;;;3.30;3.00;;;;;;;3.19;60.50;93534.13;4974125;28;20231;-83
2021/12/10 10:06:29;;;;;;;4.30;2.40;;;;;;;3.09;61.82;93526.78;4978114;28;20228;-83
2021/12/10 10:08:56;;;;;;;3.00;2.70;;;;;;;3.00;61.40;93519.47;4975010;28;20211;-82
2021/12/10 10:11:25;;;;;;;3.70;2.80;;;;;;;2.94;61.51;93512.56;4977308;28;20232;-82
2021/12/10 10:13:54;;;;;;;2.70;2.20;;;;;;;2.82;61.03;93504.66;4972082;28;20936;-82
2021/12/10 10:16:23;;;;;;;3.70;2.60;;;;;;;2.64;61.70;93499.97;4975585;28;20220;-82
2021/12/10 10:18:50;;;;;;;2.90;2.40;;;;;;;2.45;62.34;93485.31;4971261;28;20204;-83
2021/12/10 10:21:20;;;;;;;2.50;2.30;;;;;;;2.36;62.38;93474.44;4974383;28;20311;-83
2021/12/10 10:23:49;;;;;;;2.60;2.20;;;;;;;2.34;62.40;93456.06;4976618;28;20216;-84
2021/12/10 10:26:20;;;;;;;3.10;2.60;;;;;;;2.35;63.65;93455.09;4976513;28;20227;-83
2021/12/10 10:28:47;;;;;;;2.30;2.10;;;;;;;2.52;63.71;93439.66;4987483;28;20247;-82
2021/12/10 10:31:18;;;;;;;2.63;2.43;;;;;;;2.47;63.54;93441.97;4975733;28;20228;-83
2021/12/10 10:33:49;;;;;;;2.50;2.30;;;;;;;2.51;63.94;93433.00;4976016;28;20208;-82
2021/12/10 10:36:19;;;;;;;2.40;2.20;;;;;;;2.48;63.89;93426.53;4970365;28;20275;-83
2021/12/10 10:38:51;;;;;;;2.47;2.17;;;;;;;2.35;64.60;93418.78;4975671;28;20676;-83
2021/12/10 10:41:21;;;;;;;4.80;2.53;;;;;;;2.32;63.61;93419.13;4975929;28;20251;-83
2021/12/10 10:43:48;;;;;;;3.73;2.73;;;;;;;2.53;64.03;93429.31;4975676;28;20204;-82
2021/12/10 10:46:17;;;;;;;3.33;2.77;;;;;;;2.75;64.09;93435.97;4974703;28;20644;-83
2021/12/10 10:48:48;;;;;;;4.17;2.93;;;;;;;3.01;62.95;93434.63;4975589;28;20234;-83
2021/12/10 10:51:18;;;;;;;3.47;2.87;;;;;;;3.00;62.37;93440.69;4975152;28;20316;-83
2021/12/10 10:53:50;;;;;;;2.97;2.67;;;;;;;3.04;62.36;93442.69;4976947;28;20247;-83
2021/12/10 10:56:20;;;;;;;3.53;2.50;;;;;;;3.03;61.92;93441.13;4971350;28;20270;-83
2021/12/10 10:58:53;;;;;;;4.73;2.77;;;;;;;3.00;62.42;93443.22;4975006;28;20224;-83
2021/12/10 11:01:24;;;;;;;2.73;2.50;;;;;;;3.17;62.93;93447.09;4978140;28;20754;-83
2021/12/10 11:03:57;;;;;;;2.90;2.60;;;;;;;3.13;61.77;93440.78;4977485;28;21108;-83
2021/12/10 11:06:27;;;;;;;3.10;2.80;;;;;;;3.04;63.02;93437.59;4976454;28;20220;-83
2021/12/10 11:09:04;;;;;;;2.73;2.37;;;;;;;3.01;62.12;93420.16;4977494;28;20680;-83
2021/12/10 11:11:35;;;;;;;4.63;2.43;;;;;;;2.96;61.51;93431.84;4977804;28;20278;-83
2021/12/10 11:14:10;;;;;;;4.77;2.67;;;;;;;2.94;61.86;93423.63;4976842;28;20609;-83
2021/12/10 11:16:39;;;;;;;2.97;2.60;;;;;;;3.06;61.94;93422.16;4977716;28;20219;-83
2021/12/10 11:19:10;;;;;;;3.07;2.47;;;;;;;3.08;62.31;93417.66;4976705;28;20196;-83
2021/12/10 11:21:41;;;;;;;3.10;2.50;;;;;;;3.22;61.25;93414.28;4975938;28;20226;-83
2021/12/10 11:24:13;;;;;;;2.70;2.50;;;;;;;3.33;60.99;93413.75;4976694;28;20594;-83
2021/12/10 11:26:45;;;;;;;2.53;2.33;;;;;;;3.37;60.73;93404.78;4974490;28;20246;-83
2021/12/10 11:29:28;;;;;;;5.17;2.50;;;;;;;3.33;60.60;93400.25;4976061;28;20203;-83
2021/12/10 11:31:58;;;;;;;2.87;2.43;;;;;;;3.23;60.61;93398.03;4972568;28;20219;-83
2021/12/10 11:34:40;;;;;;;3.40;2.40;;;;;;;3.47;61.07;93396.81;4977230;28;20204;-83
2021/12/10 11:37:08;;;;;;;2.93;2.50;;;;;;;3.60;60.33;93391.81;4976602;28;20296;-82
2021/12/10 11:39:48;;;;;;;3.17;2.63;;;;;;;3.58;59.83;93386.13;4972004;28;20348;-83
2021/12/10 11:42:37;;;;;;;3.23;2.60;;;;;;;3.63;60.17;93381.25;4976478;28;20231;-82
2021/12/10 11:45:17;;;;;;;2.80;2.60;;;;;;;3.66;60.84;93383.41;4957493;28;20597;-83
2021/12/10 11:47:48;;;;;;;3.67;2.40;;;;;;;3.75;60.38;93386.59;4965464;28;20572;-82
2021/12/10 11:50:18;;;;;;;3.97;2.77;;;;;;;3.80;60.30;93391.91;4974096;28;20202;-83
2021/12/10 11:52:44;;;;;;;4.63;2.47;;;;;;;3.87;60.13;93386.81;4975474;28;20231;-83
2021/12/10 11:55:12;;;;;;;4.27;2.70;;;;;;;3.89;60.85;93372.94;4974547;28;20227;-82